Time;durP1;ratioP1;P1;durP2;ratioP2;P2;SDS_P1;SDS_P2;PMS_P1;PMS_P2;Temp;Humidity;BMP_temperature;BMP_pressure;BME280_temperature;BME280_humidity;BME280_pressure;Samples;Min_cycle;Max_cycle;Signal;HPM_P1;HPM_P2
2024/04/03 00:01:14;;;;;;;;;;;;;;;7.73;100.00;96684.40;105459;1255;62146;-42
2024/04/03 00:03:42;;;;;;;;;;;;;;;7.74;100.00;96688.55;105328;1260;75916;-43
2024/04/03 00:06:13;;;;;;;;;;;;;;;7.76;100.00;96687.16;105384;1256;65845;-42
2024/04/03 00:08:41;;;;;;;;;;;;;;;7.78;100.00;96688.29;105600;1256;72382;-43
2024/04/03 00:11:08;;;;;;;;;;;;;;;7.78;100.00;96691.52;105524;1260;61921;-42
2024/04/03 00:13:35;;;;;;;;;;;;;;;7.79;100.00;96692.48;105457;1257;62076;-43
2024/04/03 00:16:02;;;;;;;;;;;;;;;7.79;100.00;96692.85;105584;1260;75372;-41
2024/04/03 00:18:30;;;;;;;;;;;;;;;7.79;100.00;96693.33;105536;1257;65719;-41
2024/04/03 00:21:04;;;;;;;;;;;;;;;7.80;100.00;96694.52;105374;1256;73119;-42
2024/04/03 00:23:31;;;;;;;;;;;;;;;7.82;100.00;96697.20;105292;1257;62086;-42
2024/04/03 00:25:59;;;;;;;;;;;;;;;7.84;100.00;96696.94;105396;1256;62098;-42
2024/04/03 00:28:26;;;;;;;;;;;;;;;7.85;100.00;96699.52;105286;1260;75156;-43
2024/04/03 00:30:53;;;;;;;;;;;;;;;7.89;100.00;96708.48;105419;1257;66131;-42
2024/04/03 00:33:21;;;;;;;;;;;;;;;7.92;100.00;96701.23;105429;1258;72751;-42
2024/04/03 00:35:54;;;;;;;;;;;;;;;7.92;100.00;96703.29;105249;1257;61955;-41
2024/04/03 00:38:22;;;;;;;;;;;;;;;7.95;100.00;96706.00;105364;1257;62041;-42
2024/04/03 00:40:58;;;;;;;;;;;;;;;7.94;100.00;96708.67;105519;1255;75380;-41
2024/04/03 00:43:25;;;;;;;;;;;;;;;7.94;100.00;96703.52;105398;1257;65335;-42
2024/04/03 00:45:53;;;;;;;;;;;;;;;7.93;100.00;96708.83;105491;1257;72662;-41
2024/04/03 00:48:20;;;;;;;;;;;;;;;7.92;100.00;96707.30;105442;1257;61922;-43
2024/04/03 00:50:48;;;;;;;;;;;;;;;7.92;100.00;96714.45;105265;1256;62157;-41
2024/04/03 00:53:15;;;;;;;;;;;;;;;7.90;100.00;96706.39;105423;1257;75085;-42
2024/04/03 00:55:42;;;;;;;;;;;;;;;7.90;100.00;96710.33;105412;1255;66041;-42
2024/04/03 00:58:09;;;;;;;;;;;;;;;7.91;100.00;96710.27;105386;1257;72667;-43
2024/04/03 01:00:36;;;;;;;;;;;;;;;7.92;100.00;96717.29;105439;1259;61973;-41
2024/04/03 01:03:04;;;;;;;;;;;;;;;7.90;100.00;96718.92;105243;1257;62084;-42
2024/04/03 01:05:31;;;;;;;;;;;;;;;7.87;100.00;96728.52;105258;1260;75387;-41
2024/04/03 01:07:58;;;;;;;;;;;;;;;7.84;100.00;96726.95;105388;1256;65654;-41
2024/04/03 01:10:25;;;;;;;;;;;;;;;7.82;100.00;96729.27;105253;1256;73405;-41
2024/04/03 01:12:54;;;;;;;;;;;;;;;7.81;100.00;96730.58;105471;1262;62120;-41
2024/04/03 01:15:21;;;;;;;;;;;;;;;7.80;100.00;96724.43;105520;1257;62099;-42
2024/04/03 01:17:50;;;;;;;;;;;;;;;7.77;100.00;96727.40;105643;1258;75090;-42
2024/04/03 01:20:17;;;;;;;;;;;;;;;7.76;100.00;96727.56;105772;1256;66064;-41
2024/04/03 01:22:44;;;;;;;;;;;;;;;7.76;100.00;96729.74;105467;1256;72527;-41
2024/04/03 01:25:11;;;;;;;;;;;;;;;7.77;100.00;96727.88;105403;1260;62060;-41
2024/04/03 01:27:38;;;;;;;;;;;;;;;7.76;100.00;96726.88;105299;1260;62182;-42
2024/04/03 01:30:06;;;;;;;;;;;;;;;7.75;100.00;96731.17;106064;1258;75179;-41
2024/04/03 01:32:33;;;;;;;;;;;;;;;7.75;100.00;96730.20;105558;1260;66349;-42
2024/04/03 01:35:02;;;;;;;;;;;;;;;7.75;100.00;96730.88;105555;1257;72382;-43
2024/04/03 01:37:29;;;;;;;;;;;;;;;7.75;100.00;96739.41;105590;1256;62172;-43
2024/04/03 01:39:56;;;;;;;;;;;;;;;7.73;100.00;96736.58;105408;1257;62107;-42
2024/04/03 01:42:25;;;;;;;;;;;;;;;7.72;100.00;96739.96;105415;1259;74863;-41
2024/04/03 01:44:52;;;;;;;;;;;;;;;7.73;100.00;96739.85;105433;1257;64711;-41
2024/04/03 01:47:19;;;;;;;;;;;;;;;7.74;100.00;96739.89;105475;1257;72628;-43
2024/04/03 01:49:46;;;;;;;;;;;;;;;7.73;100.00;96742.71;105392;1256;62120;-45
2024/04/03 01:52:13;;;;;;;;;;;;;;;7.73;100.00;96748.89;105400;1257;62417;-42
2024/04/03 01:54:40;;;;;;;;;;;;;;;7.74;100.00;96738.98;105435;1256;75383;-43
2024/04/03 01:57:07;;;;;;;;;;;;;;;7.72;100.00;96742.17;105555;1257;65931;-45
2024/04/03 01:59:34;;;;;;;;;;;;;;;7.71;100.00;96741.12;105367;1257;72582;-44
2024/04/03 02:02:01;;;;;;;;;;;;;;;7.72;100.00;96748.93;105606;1256;62140;-43
2024/04/03 02:04:28;;;;;;;;;;;;;;;7.71;100.00;96746.77;105531;1256;62112;-42
2024/04/03 02:06:56;;;;;;;;;;;;;;;7.72;100.00;96745.13;105466;1258;75157;-42
2024/04/03 02:09:23;;;;;;;;;;;;;;;7.72;99.95;96745.35;105234;1256;64897;-43
2024/04/03 02:11:50;;;;;;;;;;;;;;;7.71;100.00;96751.52;105253;1256;72346;-41
2024/04/03 02:14:17;;;;;;;;;;;;;;;7.68;100.00;96751.09;105360;1260;62048;-42
2024/04/03 02:16:45;;;;;;;;;;;;;;;7.65;100.00;96751.70;105621;1256;62101;-42
2024/04/03 02:19:12;;;;;;;;;;;;;;;7.65;100.00;96753.89;105469;1260;75253;-42
2024/04/03 02:21:40;;;;;;;;;;;;;;;7.64;99.98;96752.84;105405;1257;65035;-42
2024/04/03 02:24:07;;;;;;;;;;;;;;;7.62;100.00;96751.98;105303;1257;72361;-42
2024/04/03 02:26:46;;;;;;;;;;;;;;;7.61;100.00;96751.77;105305;1256;61961;-42
2024/04/03 02:29:13;;;;;;;;;;;;;;;7.62;99.97;96752.03;105398;1256;62502;-40
2024/04/03 02:31:42;;;;;;;;;;;;;;;7.63;99.98;96752.48;105344;1257;75143;-41
2024/04/03 02:34:09;;;;;;;;;;;;;;;7.65;99.89;96759.97;105595;1260;66519;-43
2024/04/03 02:36:36;;;;;;;;;;;;;;;7.65;99.64;96759.31;105465;1256;71842;-42
2024/04/03 02:39:04;;;;;;;;;;;;;;;7.64;99.32;96764.66;105392;1259;62076;-42
2024/04/03 02:41:31;;;;;;;;;;;;;;;7.63;99.30;96759.63;105525;1259;62415;-41
2024/04/03 02:43:58;;;;;;;;;;;;;;;7.62;99.32;96761.10;105434;1259;74271;-42
2024/04/03 02:46:25;;;;;;;;;;;;;;;7.61;99.13;96759.77;105580;1257;65792;-42
2024/04/03 02:48:52;;;;;;;;;;;;;;;7.61;98.98;96765.39;105552;1257;72532;-43
2024/04/03 02:51:20;;;;;;;;;;;;;;;7.59;98.97;96765.58;105432;1259;62137;-42
2024/04/03 02:53:47;;;;;;;;;;;;;;;7.57;99.02;96764.34;105420;1256;62515;-43
2024/04/03 02:56:14;;;;;;;;;;;;;;;7.58;99.16;96768.66;105410;1256;75789;-43
2024/04/03 02:58:42;;;;;;;;;;;;;;;7.56;99.22;96768.73;105458;1256;66215;-41
2024/04/03 03:01:09;;;;;;;;;;;;;;;7.54;99.16;96769.75;105708;1258;72372;-41
2024/04/03 03:03:36;;;;;;;;;;;;;;;7.52;99.13;96764.83;105438;1256;62000;-42
2024/04/03 03:06:04;;;;;;;;;;;;;;;7.49;99.40;96769.58;105409;1256;62083;-44
2024/04/03 03:08:32;;;;;;;;;;;;;;;7.47;99.41;96776.91;105601;1256;75463;-41
2024/04/03 03:10:59;;;;;;;;;;;;;;;7.45;99.52;96779.91;105451;1260;64883;-43
2024/04/03 03:13:27;;;;;;;;;;;;;;;7.42;99.49;96778.94;105482;1257;71480;-44
2024/04/03 03:15:54;;;;;;;;;;;;;;;7.42;99.59;96777.14;105345;1257;62836;-42
2024/04/03 03:18:22;;;;;;;;;;;;;;;7.42;99.61;96778.21;105367;1256;62149;-42
2024/04/03 03:20:49;;;;;;;;;;;;;;;7.42;99.72;96780.97;105279;1260;76804;-43
2024/04/03 03:23:17;;;;;;;;;;;;;;;7.42;99.72;96786.73;105253;1257;66249;-43
2024/04/03 03:25:45;;;;;;;;;;;;;;;7.43;99.69;96778.92;105355;1256;72371;-43
2024/04/03 03:28:12;;;;;;;;;;;;;;;7.44;99.74;96787.79;105533;1260;62070;-42
2024/04/03 03:30:39;;;;;;;;;;;;;;;7.44;99.35;96788.63;105492;1256;62050;-42
2024/04/03 03:33:07;;;;;;;;;;;;;;;7.44;99.11;96787.33;105540;1260;75326;-43
2024/04/03 03:35:34;;;;;;;;;;;;;;;7.45;98.94;96787.52;105545;1257;66595;-43
2024/04/03 03:38:01;;;;;;;;;;;;;;;7.46;98.62;96797.26;105521;1257;72555;-42
2024/04/03 03:40:30;;;;;;;;;;;;;;;7.47;98.61;96789.55;105521;1257;62057;-42
2024/04/03 03:42:57;;;;;;;;;;;;;;;7.48;98.56;96801.88;105432;1257;62378;-42
2024/04/03 03:45:24;;;;;;;;;;;;;;;7.50;98.27;96793.80;105624;1256;76214;-43
2024/04/03 03:47:51;;;;;;;;;;;;;;;7.51;98.28;96799.52;105529;1257;66021;-42
2024/04/03 03:53:04;;;;;;;;;;;;;;;7.50;98.11;96805.37;105471;1257;62057;-43
2024/04/03 03:55:33;;;;;;;;;;;;;;;7.49;98.03;96806.66;105585;1257;62070;-43
2024/04/03 03:58:03;;;;;;;;;;;;;;;7.51;97.68;96810.48;105511;1259;75088;-42
2024/04/03 04:00:30;;;;;;;;;;;;;;;7.52;97.56;96807.35;105618;1257;66088;-42
2024/04/03 04:02:57;;;;;;;;;;;;;;;7.55;97.53;96807.61;105481;1257;72298;-43
2024/04/03 04:05:24;;;;;;;;;;;;;;;7.56;97.38;96800.91;105249;1257;62027;-43
2024/04/03 04:07:51;;;;;;;;;;;;;;;7.58;97.43;96804.36;105202;1259;62156;-43
2024/04/03 04:10:20;;;;;;;;;;;;;;;7.59;97.28;96802.20;105621;1260;76438;-43
2024/04/03 04:12:47;;;;;;;;;;;;;;;7.61;97.21;96803.23;105582;1258;65940;-41
2024/04/03 04:15:14;;;;;;;;;;;;;;;7.63;96.72;96815.54;105639;1257;72443;-43
2024/04/03 04:17:41;;;;;;;;;;;;;;;7.66;96.15;96812.59;105414;1260;62062;-42
2024/04/03 04:20:08;;;;;;;;;;;;;;;7.68;95.87;96816.40;105333;1257;62067;-41
2024/04/03 04:22:36;;;;;;;;;;;;;;;7.68;95.61;96809.19;105429;1260;75581;-42
2024/04/03 04:25:03;;;;;;;;;;;;;;;7.67;95.58;96813.11;106020;1258;66526;-42
2024/04/03 04:27:31;;;;;;;;;;;;;;;7.68;95.15;96814.86;105416;1257;72498;-42
2024/04/03 04:29:58;;;;;;;;;;;;;;;7.70;95.05;96819.08;105189;1258;62055;-41
2024/04/03 04:32:25;;;;;;;;;;;;;;;7.72;94.85;96817.15;105204;1259;62070;-43
2024/04/03 04:34:55;;;;;;;;;;;;;;;7.75;94.91;96816.02;105167;1261;75391;-41
2024/04/03 04:37:24;;;;;;;;;;;;;;;7.78;94.47;96821.52;105312;1257;65713;-42
2024/04/03 04:39:51;;;;;;;;;;;;;;;7.83;94.29;96820.43;105398;1257;72595;-40
2024/04/03 04:42:19;;;;;;;;;;;;;;;7.88;93.54;96821.34;105544;1257;63685;-43
2024/04/03 04:44:47;;;;;;;;;;;;;;;7.90;93.02;96823.00;105419;1255;62057;-41
2024/04/03 04:47:14;;;;;;;;;;;;;;;7.93;92.94;96826.66;105452;1259;75097;-42
2024/04/03 04:49:41;;;;;;;;;;;;;;;7.95;92.10;96828.31;105408;1255;66067;-43
2024/04/03 04:52:08;;;;;;;;;;;;;;;7.99;91.99;96826.15;105609;1257;72599;-42
2024/04/03 04:54:35;;;;;;;;;;;;;;;8.03;91.51;96825.37;105530;1259;62047;-41
2024/04/03 04:57:09;;;;;;;;;;;;;;;8.07;91.30;96828.58;105449;1257;62154;-43
2024/04/03 04:59:38;;;;;;;;;;;;;;;8.11;91.20;96829.55;105377;1255;73237;-43
2024/04/03 05:02:05;;;;;;;;;;;;;;;8.15;90.72;96837.89;105525;1256;64719;-43
2024/04/03 05:04:32;;;;;;;;;;;;;;;8.19;90.73;96833.48;105449;1256;72652;-42
2024/04/03 05:07:02;;;;;;;;;;;;;;;8.24;90.28;96842.11;105407;1261;62037;-42
2024/04/03 05:09:29;;;;;;;;;;;;;;;8.31;90.16;96842.74;105303;1257;62082;-42
2024/04/03 05:11:57;;;;;;;;;;;;;;;8.37;89.81;96841.51;105432;1256;75417;-43
2024/04/03 05:14:25;;;;;;;;;;;;;;;8.43;89.65;96847.98;105543;1261;65610;-41
2024/04/03 05:16:52;;;;;;;;;;;;;;;8.49;89.26;96852.55;105451;1257;72380;-41
2024/04/03 05:19:19;;;;;;;;;;;;;;;8.54;88.30;96845.77;105412;1260;62062;-42
2024/04/03 05:21:46;;;;;;;;;;;;;;;8.59;88.44;96851.98;105429;1256;62153;-41
2024/04/03 05:24:14;;;;;;;;;;;;;;;8.63;88.36;96860.98;105475;1259;75353;-42
2024/04/03 05:26:41;;;;;;;;;;;;;;;8.68;87.91;96862.81;105306;1257;65187;-42
2024/04/03 05:29:08;;;;;;;;;;;;;;;8.74;87.30;96867.55;105189;1257;72325;-41
2024/04/03 05:31:37;;;;;;;;;;;;;;;8.80;87.10;96859.94;105289;1262;62159;-39
2024/04/03 05:34:04;;;;;;;;;;;;;;;8.87;86.88;96867.30;105279;1257;62156;-43
2024/04/03 05:36:31;;;;;;;;;;;;;;;8.92;86.10;96871.75;105166;1260;76060;-43
2024/04/03 05:38:59;;;;;;;;;;;;;;;8.97;85.86;96876.59;105180;1262;67228;-42
2024/04/03 05:41:26;;;;;;;;;;;;;;;9.04;85.56;96879.45;105219;1257;73575;-41
2024/04/03 05:43:53;;;;;;;;;;;;;;;9.11;85.59;96878.27;105379;1260;62051;-45
2024/04/03 05:46:20;;;;;;;;;;;;;;;9.19;85.18;96879.05;105597;1257;62042;-43
2024/04/03 05:48:47;;;;;;;;;;;;;;;9.26;84.26;96885.56;105387;1258;75464;-43
2024/04/03 05:51:14;;;;;;;;;;;;;;;9.28;84.36;96874.21;105409;1260;66019;-42
2024/04/03 05:53:42;;;;;;;;;;;;;;;9.30;83.86;96882.77;105324;1257;73199;-43
2024/04/03 05:56:09;;;;;;;;;;;;;;;9.30;83.50;96879.04;105276;1260;62025;-43
2024/04/03 05:58:36;;;;;;;;;;;;;;;9.28;83.36;96885.45;105216;1256;62077;-42
2024/04/03 06:01:03;;;;;;;;;;;;;;;9.30;83.98;96883.48;105506;1261;75452;-44
2024/04/03 06:03:31;;;;;;;;;;;;;;;9.33;83.69;96887.13;105398;1260;65951;-43
2024/04/03 06:05:58;;;;;;;;;;;;;;;9.34;83.36;96888.39;105123;1257;74833;-45
2024/04/03 06:08:25;;;;;;;;;;;;;;;9.33;83.50;96883.48;105460;1256;62839;-44
2024/04/03 06:10:53;;;;;;;;;;;;;;;9.36;83.61;96888.17;105297;1256;62566;-46
2024/04/03 06:13:20;;;;;;;;;;;;;;;9.39;83.16;96889.73;105252;1257;76211;-42
2024/04/03 06:15:48;;;;;;;;;;;;;;;9.40;83.18;96885.73;105276;1256;68267;-43
2024/04/03 06:18:15;;;;;;;;;;;;;;;9.43;82.86;96890.59;105369;1260;72686;-44
2024/04/03 06:20:43;;;;;;;;;;;;;;;9.45;82.23;96889.95;105175;1256;62073;-43
2024/04/03 06:23:11;;;;;;;;;;;;;;;9.48;81.50;96889.16;105041;1256;62261;-42
2024/04/03 06:25:38;;;;;;;;;;;;;;;9.52;81.88;96889.69;105385;1260;76240;-45
2024/04/03 06:28:05;;;;;;;;;;;;;;;9.58;81.93;96885.05;105369;1256;67047;-38
2024/04/03 06:30:33;;;;;;;;;;;;;;;9.64;81.47;96886.08;105347;1257;73415;-42
2024/04/03 06:33:00;;;;;;;;;;;;;;;9.71;81.79;96881.86;105321;1262;62496;-41
2024/04/03 06:35:27;;;;;;;;;;;;;;;9.76;80.94;96888.03;105452;1256;62092;-45
2024/04/03 06:37:55;;;;;;;;;;;;;;;9.78;80.77;96884.61;105405;1260;76064;-42
2024/04/03 06:40:22;;;;;;;;;;;;;;;9.83;80.71;96888.42;105639;1262;67129;-46
2024/04/03 06:42:49;;;;;;;;;;;;;;;9.89;79.43;96889.89;105147;1259;73361;-43
2024/04/03 06:45:17;;;;;;;;;;;;;;;9.96;79.61;96884.45;105527;1262;62085;-45
2024/04/03 06:47:46;;;;;;;;;;;;;;;10.03;78.87;96894.88;105149;1259;62124;-43
2024/04/03 06:50:14;;;;;;;;;;;;;;;10.09;78.09;96889.45;105531;1262;76332;-44
2024/04/03 06:52:41;;;;;;;;;;;;;;;10.16;78.12;96886.73;108688;1259;67085;-44
2024/04/03 06:55:08;;;;;;;;;;;;;;;10.24;76.90;96894.55;105103;1262;73429;-42
2024/04/03 06:57:35;;;;;;;;;;;;;;;10.30;76.49;96896.92;105027;1262;62052;-44
2024/04/03 07:00:03;;;;;;;;;;;;;;;10.37;76.17;96901.88;105090;1259;62661;-43
2024/04/03 07:02:30;;;;;;;;;;;;;;;10.41;76.12;96910.56;105008;1260;76083;-44
2024/04/03 07:04:57;;;;;;;;;;;;;;;10.46;75.48;96911.10;105039;1259;66099;-45
2024/04/03 07:07:24;;;;;;;;;;;;;;;10.50;74.70;96914.10;105044;1260;73575;-42
2024/04/03 07:09:52;;;;;;;;;;;;;;;10.53;74.22;96923.10;104996;1265;62056;-45
2024/04/03 07:12:19;;;;;;;;;;;;;;;10.56;73.83;96922.19;105171;1259;62062;-44
2024/04/03 07:14:47;;;;;;;;;;;;;;;10.58;73.35;96915.85;105059;1264;76160;-45
2024/04/03 07:17:15;;;;;;;;;;;;;;;10.62;73.33;96920.17;105088;1258;66042;-43
2024/04/03 07:19:42;;;;;;;;;;;;;;;10.68;72.23;96924.23;105082;1260;73591;-42
2024/04/03 07:22:10;;;;;;;;;;;;;;;10.71;71.93;96921.17;105164;1262;61948;-42
2024/04/03 07:24:37;;;;;;;;;;;;;;;10.74;71.50;96922.59;107303;1262;61968;-42
2024/04/03 07:27:04;;;;;;;;;;;;;;;10.78;70.75;96922.34;105142;1260;75987;-42
2024/04/03 07:29:31;;;;;;;;;;;;;;;10.84;70.25;96919.83;105000;1263;65277;-41
2024/04/03 07:31:58;;;;;;;;;;;;;;;10.92;70.04;96917.34;105164;1259;73785;-41
2024/04/03 07:34:25;;;;;;;;;;;;;;;11.00;70.04;96920.29;105191;1262;62034;-43
2024/04/03 07:36:52;;;;;;;;;;;;;;;11.08;70.04;96928.73;105056;1259;62176;-42
2024/04/03 07:39:20;;;;;;;;;;;;;;;11.12;68.55;96932.02;105151;1260;76432;-44
2024/04/03 07:41:47;;;;;;;;;;;;;;;11.08;68.12;96921.88;105239;1265;66909;-39
2024/04/03 07:44:17;;;;;;;;;;;;;;;10.97;68.37;96930.11;105139;1259;73445;-43
2024/04/03 07:46:47;;;;;;;;;;;;;;;10.87;68.78;96935.92;105196;1260;62116;-43
2024/04/03 07:49:15;;;;;;;;;;;;;;;10.77;69.06;96943.01;105206;1259;62085;-42
2024/04/03 07:51:46;;;;;;;;;;;;;;;10.71;69.76;96948.39;105149;1263;76077;-42
2024/04/03 07:54:13;;;;;;;;;;;;;;;10.68;70.29;96957.13;105121;1259;67025;-42
2024/04/03 07:56:40;;;;;;;;;;;;;;;10.66;70.80;96961.57;105109;1259;73517;-42
2024/04/03 07:59:08;;;;;;;;;;;;;;;10.66;71.21;96959.36;105111;1259;63146;-39
2024/04/03 08:01:35;;;;;;;;;;;;;;;10.74;71.44;96971.70;105186;1259;62126;-44
2024/04/03 08:04:04;;;;;;;;;;;;;;;10.83;71.47;96957.69;105088;1263;75416;-43
2024/04/03 08:06:31;;;;;;;;;;;;;;;11.00;71.93;96956.33;105020;1258;66569;-44
2024/04/03 08:08:58;;;;;;;;;;;;;;;11.18;71.27;96961.68;105248;1262;73251;-43
2024/04/03 08:11:26;;;;;;;;;;;;;;;11.33;69.12;96964.64;105166;1262;62509;-42
2024/04/03 08:13:54;;;;;;;;;;;;;;;11.44;66.43;96972.00;104938;1260;62108;-43
2024/04/03 08:16:21;;;;;;;;;;;;;;;11.49;63.99;96974.03;105052;1263;76054;-43
2024/04/03 08:18:49;;;;;;;;;;;;;;;11.47;63.32;96968.52;105055;1265;66013;-43
2024/04/03 08:21:16;;;;;;;;;;;;;;;11.51;63.59;96979.95;105199;1259;73389;-41
2024/04/03 08:23:43;;;;;;;;;;;;;;;11.58;62.98;96983.62;105080;1259;62245;-43
2024/04/03 08:26:13;;;;;;;;;;;;;;;11.69;62.53;96985.22;105043;1259;62086;-44
2024/04/03 08:28:40;;;;;;;;;;;;;;;11.82;62.57;96988.69;104999;1263;78229;-41
2024/04/03 08:31:11;;;;;;;;;;;;;;;11.91;61.67;96985.08;105063;1259;68677;-43
2024/04/03 08:33:38;;;;;;;;;;;;;;;11.89;60.86;96985.70;105170;1262;72260;-42
2024/04/03 08:36:10;;;;;;;;;;;;;;;11.82;60.85;96987.65;105208;1259;62072;-42
2024/04/03 08:38:37;;;;;;;;;;;;;;;11.83;60.90;96984.90;105183;1259;62171;-44
2024/04/03 08:41:05;;;;;;;;;;;;;;;11.90;61.49;96979.81;105263;1263;76164;-44
2024/04/03 08:43:35;;;;;;;;;;;;;;;11.97;60.62;96978.34;105232;1265;67007;-42
2024/04/03 08:46:03;;;;;;;;;;;;;;;12.00;60.76;96987.98;105237;1265;73155;-45
2024/04/03 08:48:30;;;;;;;;;;;;;;;12.01;61.04;96983.64;105145;1259;62091;-47
2024/04/03 08:50:59;;;;;;;;;;;;;;;12.02;61.09;97004.67;105156;1259;62104;-46
2024/04/03 08:54:02;;;;;;;;;;;;;;;12.04;60.99;96986.70;109271;1254;76059;31
2024/04/03 08:56:30;;;;;;;;;;;;;;;12.11;60.33;96990.23;104866;1270;63872;-45
2024/04/03 08:59:01;;;;;;;;;;;;;;;12.15;60.25;96998.83;104574;1265;73566;-46
2024/04/03 09:01:31;;;;;;;;;;;;;;;12.11;59.87;97004.19;104676;1267;62156;-44
2024/04/03 09:03:59;;;;;;;;;;;;;;;12.00;60.11;96994.64;104792;1265;62122;-44
2024/04/03 09:06:27;;;;;;;;;;;;;;;11.91;60.98;96997.87;104595;1271;78410;-44
2024/04/03 09:08:55;;;;;;;;;;;;;;;11.89;61.66;96997.73;104611;1266;66828;-45
2024/04/03 09:11:24;;;;;;;;;;;;;;;11.88;61.03;96995.17;104811;1264;73524;-43
2024/04/03 09:13:54;;;;;;;;;;;;;;;11.85;61.34;96998.17;104756;1265;62100;-45
2024/04/03 09:16:22;;;;;;;;;;;;;;;11.85;61.78;96994.42;104613;1265;62055;-45
2024/04/03 09:19:02;;;;;;;;;;;;;;;11.88;61.73;97000.13;104752;1266;76336;-43
2024/04/03 09:21:29;;;;;;;;;;;;;;;11.88;61.94;96994.25;104726;1266;67137;-43
2024/04/03 09:23:58;;;;;;;;;;;;;;;11.84;61.62;96998.13;104785;1271;73682;-44
2024/04/03 09:26:28;;;;;;;;;;;;;;;11.81;61.71;97002.77;104506;1271;62143;-44
2024/04/03 09:28:59;;;;;;;;;;;;;;;11.84;61.59;97000.95;104513;1265;62035;-45
2024/04/03 09:31:27;;;;;;;;;;;;;;;11.91;61.66;96990.23;104804;1267;75459;-44
2024/04/03 09:33:55;;;;;;;;;;;;;;;12.07;61.32;97000.23;104725;1265;67036;-47
2024/04/03 09:36:22;;;;;;;;;;;;;;;12.24;61.24;97001.18;104683;1266;73590;-47
2024/04/03 09:38:49;;;;;;;;;;;;;;;12.38;60.68;97004.52;104820;1268;63583;-43
2024/04/03 09:41:17;;;;;;;;;;;;;;;12.49;59.81;97010.30;104663;1266;62070;-41
2024/04/03 09:43:45;;;;;;;;;;;;;;;12.48;59.42;97009.41;104786;1271;76315;-46
2024/04/03 09:46:16;;;;;;;;;;;;;;;12.42;59.43;97002.25;104813;1266;67192;-42
2024/04/03 09:48:44;;;;;;;;;;;;;;;12.41;59.82;97001.16;104827;1265;73239;-38
2024/04/03 09:51:11;;;;;;;;;;;;;;;12.50;60.34;96992.52;104854;1270;62072;-48
2024/04/03 09:53:38;;;;;;;;;;;;;;;12.63;60.03;96996.39;104544;1265;62152;-44
2024/04/03 09:56:06;;;;;;;;;;;;;;;12.70;58.83;97003.02;104651;1266;75586;-43
2024/04/03 09:58:34;;;;;;;;;;;;;;;12.73;58.00;97020.17;104826;1270;67029;-46
2024/04/03 10:01:03;;;;;;;;;;;;;;;12.79;56.93;97020.70;104847;1265;73443;-43
2024/04/03 10:03:31;;;;;;;;;;;;;;;12.88;57.00;97014.86;104767;1271;62139;-46
2024/04/03 10:06:11;;;;;;;;;;;;;;;12.97;57.54;97004.41;104803;1266;62202;-43
2024/04/03 10:08:43;;;;;;;;;;;;;;;13.02;56.07;97028.11;104688;1265;75477;-46
2024/04/03 10:11:12;;;;;;;;;;;;;;;12.93;55.83;97022.02;104698;1271;66455;-45
2024/04/03 10:13:39;;;;;;;;;;;;;;;12.83;56.47;97041.86;104811;1270;73271;-45
2024/04/03 10:16:07;;;;;;;;;;;;;;;12.69;58.12;97033.02;104706;1266;62136;-46
2024/04/03 10:18:34;;;;;;;;;;;;;;;12.61;59.08;97025.17;104715;1265;62131;-42
2024/04/03 10:21:02;;;;;;;;;;;;;;;12.59;59.44;97020.67;105501;1265;76485;-45
2024/04/03 10:23:29;;;;;;;;;;;;;;;12.60;59.81;97014.87;104771;1265;66869;-44
2024/04/03 10:25:56;;;;;;;;;;;;;;;12.71;59.55;97020.04;104650;1265;73530;-44
2024/04/03 10:28:24;;;;;;;;;;;;;;;12.79;59.52;97017.80;104788;1270;62080;-45
2024/04/03 10:30:55;;;;;;;;;;;;;;;12.85;59.17;97023.27;104838;1271;62097;-44
2024/04/03 10:33:22;;;;;;;;;;;;;;;12.87;59.63;97024.57;105957;1270;75314;-42
2024/04/03 10:35:52;;;;;;;;;;;;;;;12.91;60.39;97032.70;104750;1265;67125;-43
2024/04/03 10:38:20;;;;;;;;;;;;;;;12.98;59.32;97033.82;104803;1265;73266;-49
2024/04/03 10:40:47;;;;;;;;;;;;;;;13.04;58.92;97030.33;104740;1270;62130;-46
2024/04/03 10:43:20;;;;;;;;;;;;;;;13.08;58.03;97037.96;104819;1267;62073;-45
2024/04/03 10:45:51;;;;;;;;;;;;;;;13.07;57.07;97039.25;104823;1270;75912;-46
2024/04/03 10:48:22;;;;;;;;;;;;;;;13.08;56.71;97034.26;104840;1266;66869;-45
2024/04/03 10:50:49;;;;;;;;;;;;;;;13.19;56.83;97033.37;104797;1266;73439;-44
2024/04/03 10:53:17;;;;;;;;;;;;;;;13.36;56.36;97031.28;104800;1271;62003;-44
2024/04/03 10:55:45;;;;;;;;;;;;;;;13.47;56.18;97029.99;104849;1269;62389;-46
2024/04/03 10:58:13;;;;;;;;;;;;;;;13.62;55.57;97017.13;104672;1271;76189;-45
2024/04/03 11:00:41;;;;;;;;;;;;;;;13.92;55.54;97021.38;104800;1269;64864;-47
2024/04/03 11:03:09;;;;;;;;;;;;;;;14.26;53.07;97017.55;104675;1266;73461;-45
2024/04/03 11:05:36;;;;;;;;;;;;;;;14.40;51.90;97009.64;104675;1265;62592;-43
2024/04/03 11:08:04;;;;;;;;;;;;;;;14.33;52.14;97020.11;104558;1265;62127;-41
2024/04/03 11:10:31;;;;;;;;;;;;;;;14.21;50.67;97040.48;104656;1267;75577;-49
2024/04/03 11:13:03;;;;;;;;;;;;;;;14.02;51.44;97036.63;104656;1268;66128;-42
2024/04/03 11:15:31;;;;;;;;;;;;;;;13.85;50.87;97055.13;104481;1266;73473;-45
2024/04/03 11:17:59;;;;;;;;;;;;;;;13.62;51.14;97043.67;106726;1266;243955;-45
2024/04/03 11:20:28;;;;;;;;;;;;;;;13.38;52.13;97048.95;104755;1266;62213;-44
2024/04/03 11:22:58;;;;;;;;;;;;;;;13.19;53.01;97078.75;104596;1265;76403;-43
2024/04/03 11:25:27;;;;;;;;;;;;;;;12.98;56.19;97102.98;104696;1265;67162;-42
2024/04/03 11:27:56;;;;;;;;;;;;;;;12.68;57.75;97084.16;104940;1269;72507;-45
2024/04/03 11:30:24;;;;;;;;;;;;;;;12.47;57.82;97069.61;104759;1271;62068;-44
2024/04/03 11:32:51;;;;;;;;;;;;;;;12.63;57.11;97057.74;104530;1265;62711;-46
2024/04/03 11:35:18;;;;;;;;;;;;;;;13.40;54.86;97056.38;105446;1265;75369;-43
2024/04/03 11:37:47;;;;;;;;;;;;;;;14.44;52.27;97053.30;104796;1268;66897;-46
2024/04/03 11:40:16;;;;;;;;;;;;;;;15.47;50.18;97052.24;104991;1265;73321;-47
2024/04/03 11:42:43;;;;;;;;;;;;;;;15.92;48.16;97052.23;104627;1268;61984;-45
2024/04/03 11:45:10;;;;;;;;;;;;;;;15.80;48.01;97052.39;105068;1271;62157;-43
2024/04/03 11:47:38;;;;;;;;;;;;;;;15.44;49.26;97063.27;104601;1269;76209;-46
2024/04/03 11:50:05;;;;;;;;;;;;;;;15.00;49.22;97064.83;104555;1268;66920;-42
2024/04/03 11:52:33;;;;;;;;;;;;;;;14.49;51.05;97058.03;105002;1265;73515;-47
2024/04/03 11:55:00;;;;;;;;;;;;;;;14.26;51.36;97060.73;105470;1265;62187;-43
2024/04/03 11:57:28;;;;;;;;;;;;;;;14.59;50.82;97067.14;104740;1265;62122;-46
2024/04/03 11:59:56;;;;;;;;;;;;;;;15.07;49.15;97061.17;104692;1267;76189;-45
2024/04/03 12:02:24;;;;;;;;;;;;;;;15.09;48.20;97057.77;105023;1268;65169;-46
2024/04/03 12:04:51;;;;;;;;;;;;;;;14.86;48.24;97058.58;104626;1269;72580;-44
2024/04/03 12:07:19;;;;;;;;;;;;;;;14.70;48.98;97063.70;104568;1265;62097;-44
2024/04/03 12:09:48;;;;;;;;;;;;;;;14.85;48.60;97056.15;104589;1270;62274;-44
2024/04/03 12:12:15;;;;;;;;;;;;;;;14.86;48.50;97049.95;104796;1269;76005;-42
2024/04/03 12:14:43;;;;;;;;;;;;;;;14.83;48.73;97049.32;104564;1265;67155;-43
2024/04/03 12:17:10;;;;;;;;;;;;;;;15.02;48.55;97056.20;104769;1266;73962;-43
2024/04/03 12:22:24;;;;;;;;;;;;;;;14.88;48.06;97056.47;104638;1269;61975;-47
2024/04/03 12:24:51;;;;;;;;;;;;;;;14.86;47.61;97055.80;104612;1270;75867;-45
2024/04/03 12:27:18;;;;;;;;;;;;;;;14.97;47.24;97057.05;104953;1269;67226;-45
2024/04/03 12:29:46;;;;;;;;;;;;;;;14.99;46.22;97063.49;104910;1265;73453;-45
2024/04/03 12:32:13;;;;;;;;;;;;;;;14.82;46.32;97061.14;104623;1271;62078;-45
2024/04/03 12:34:41;;;;;;;;;;;;;;;14.68;46.25;97057.02;104548;1266;62092;-47
2024/04/03 12:37:08;;;;;;;;;;;;;;;14.81;45.61;97060.64;104683;1269;75994;-48
2024/04/03 12:39:55;;;;;;;;;;;;;;;15.05;44.86;97063.98;104678;1269;67062;-42
2024/04/03 12:42:22;;;;;;;;;;;;;;;14.96;44.40;97064.80;104953;1266;73403;-44
2024/04/03 12:44:49;;;;;;;;;;;;;;;14.86;45.27;97051.89;104541;1267;62001;-45
2024/04/03 12:47:16;;;;;;;;;;;;;;;14.85;45.01;97056.54;104622;1265;62075;-44
2024/04/03 12:49:44;;;;;;;;;;;;;;;14.77;44.98;97064.36;106696;1265;76175;-44